Time;durP1;ratioP1;P1;durP2;ratioP2;P2;SDS_P1;SDS_P2;PMS_P1;PMS_P2;Temp;Humidity;BMP_temperature;BMP_pressure;BME280_temperature;BME280_humidity;BME280_pressure;Samples;Min_cycle;Max_cycle;Signal;HPM_P1;HPM_P2
2023/02/21 02:13:58;;;;;;;4.43;2.27;;;;;;;;;;5114310;28;20043;-40
2023/02/21 02:16:43;;;;;;;6.47;2.70;;;;;;;;;;5113688;28;20028;-41
2023/02/21 02:19:09;;;;;;;;;;;;;;;;;;5114337;28;20024;-43
2023/02/21 02:21:41;;;;;;;3.75;2.15;;;;;;;;;;5113720;28;19904;-42
2023/02/21 02:24:21;;;;;;;4.45;2.33;;;;;;;;;;5112349;28;20083;-41
2023/02/21 02:26:50;;;;;;;5.60;2.42;;;;;;;;;;5113551;28;20035;-41
2023/02/21 02:29:19;;;;;;;5.22;2.47;;;;;;;;;;5113518;28;20173;-37
2023/02/21 02:32:21;;;;;;;6.15;2.42;;;;;;;;;;5113412;28;20027;-41
2023/02/21 02:34:51;;;;;;;4.00;2.35;;;;;;;;;;5070407;28;20028;-42
2023/02/21 02:37:17;;;;;;;5.35;2.20;;;;;;;;;;5105776;27;20473;-39
2023/02/21 02:39:49;;;;;;;4.07;2.35;;;;;;;;;;5113186;28;20027;-39
2023/02/21 02:42:24;;;;;;;3.88;2.08;;;;;;;;;;5113153;27;20092;-39
2023/02/21 02:44:53;;;;;;;5.50;2.42;;;;;;;;;;5113324;28;20100;-42
2023/02/21 02:47:26;;;;;;;5.78;2.30;;;;;;;;;;5113045;27;20482;-42
2023/02/21 02:49:53;;;;;;;5.97;2.40;;;;;;;;;;5113077;28;20098;-42
2023/02/21 02:52:19;;;;;;;4.00;2.30;;;;;;;;;;5113436;28;20388;-38
2023/02/21 02:54:57;;;;;;;7.78;2.33;;;;;;;;;;5113186;28;20027;-37
2023/02/21 02:57:23;;;;;;;5.72;2.42;;;;;;;;;;5113158;28;20024;-42
2023/02/21 02:59:49;;;;;;;3.53;2.05;;;;;;;;;;5113064;28;20023;-41
2023/02/21 03:02:15;;;;;;;6.53;2.45;;;;;;;;;;5113059;28;20500;-42
2023/02/21 03:04:46;;;;;;;3.78;2.13;;;;;;;;;;5112818;28;20035;-39
2023/02/21 03:07:28;;;;;;;3.72;2.08;;;;;;;;;;5112666;27;20038;-41
2023/02/21 03:10:16;;;;;;;2.80;2.00;;;;;;;;;;5112855;28;20027;-33
2023/02/21 03:12:55;;;;;;;4.78;1.65;;;;;;;;;;5112870;28;20061;-33
2023/02/21 03:15:24;;;;;;;4.07;2.03;;;;;;;;;;5113030;27;20020;-33
2023/02/21 03:18:03;;;;;;;4.57;2.08;;;;;;;;;;5111357;28;20067;-33
2023/02/21 03:20:30;;;;;;;4.97;1.90;;;;;;;;;;5112735;28;20027;-31
2023/02/21 03:22:57;;;;;;;5.75;2.05;;;;;;;;;;5112581;28;20020;-39
2023/02/21 03:25:24;;;;;;;3.83;2.13;;;;;;;;;;5112517;28;20473;-31
2023/02/21 03:27:52;;;;;;;3.40;2.00;;;;;;;;;;5111041;28;20019;-32
2023/02/21 03:30:18;;;;;;;4.93;2.20;;;;;;;;;;5112612;28;20020;-34
2023/02/21 03:32:50;;;;;;;4.05;2.30;;;;;;;;;;5112418;28;20439;-34
2023/02/21 03:35:17;;;;;;;3.65;2.10;;;;;;;;;;5112508;27;20036;-31
2023/02/21 03:37:45;;;;;;;4.47;2.20;;;;;;;;;;5112498;28;20022;-32
2023/02/21 03:40:13;;;;;;;3.35;1.92;;;;;;;;;;5112366;28;20022;-34
2023/02/21 03:42:40;;;;;;;3.05;2.03;;;;;;;;;;5112249;28;20544;-34
2023/02/21 03:45:06;;;;;;;3.58;2.17;;;;;;;;;;5112267;28;20393;-36
2023/02/21 03:47:32;;;;;;;4.85;2.55;;;;;;;;;;5111967;28;20023;-34
2023/02/21 03:49:58;;;;;;;3.38;1.90;;;;;;;;;;5111754;28;20085;-35
2023/02/21 03:52:24;;;;;;;4.47;2.30;;;;;;;;;;5111966;28;20031;-34
2023/02/21 03:54:50;;;;;;;6.47;2.35;;;;;;;;;;5112034;28;20019;-33
2023/02/21 03:57:16;;;;;;;4.03;2.03;;;;;;;;;;5111756;28;20496;-36
2023/02/21 03:59:42;;;;;;;3.05;1.95;;;;;;;;;;5111816;28;20036;-35
2023/02/21 04:02:08;;;;;;;3.60;2.00;;;;;;;;;;5111942;28;20042;-37
2023/02/21 04:04:34;;;;;;;4.68;1.85;;;;;;;;;;5111864;28;20034;-32
2023/02/21 04:07:00;;;;;;;4.10;2.08;;;;;;;;;;5111531;28;20030;-32
2023/02/21 04:09:26;;;;;;;2.78;1.83;;;;;;;;;;5111912;28;20032;-32
2023/02/21 04:11:52;;;;;;;4.13;2.15;;;;;;;;;;5111673;28;20020;-36
2023/02/21 04:14:19;;;;;;;2.97;1.90;;;;;;;;;;5111861;28;20427;-34
2023/02/21 04:16:45;;;;;;;3.05;1.90;;;;;;;;;;5111720;28;20024;-36
2023/02/21 04:19:11;;;;;;;4.82;2.00;;;;;;;;;;5110440;28;20377;-32
2023/02/21 04:21:37;;;;;;;3.33;2.00;;;;;;;;;;5111576;28;20031;-37
2023/02/21 04:24:03;;;;;;;6.03;1.98;;;;;;;;;;5111729;28;20063;-34
2023/02/21 04:26:29;;;;;;;2.92;1.75;;;;;;;;;;5111419;28;20034;-36
2023/02/21 04:28:55;;;;;;;3.22;1.65;;;;;;;;;;5111904;28;20027;-38
2023/02/21 04:31:21;;;;;;;4.95;1.98;;;;;;;;;;5111918;28;20027;-34
2023/02/21 04:33:48;;;;;;;4.75;2.00;;;;;;;;;;5111958;28;20073;-31
2023/02/21 04:36:14;;;;;;;3.22;1.60;;;;;;;;;;5111429;28;20031;-31
2023/02/21 04:38:40;;;;;;;2.97;1.67;;;;;;;;;;5112011;28;20047;-35
2023/02/21 04:41:06;;;;;;;4.38;1.90;;;;;;;;;;5111509;28;20112;-32
2023/02/21 04:43:32;;;;;;;2.78;1.73;;;;;;;;;;5111565;28;20073;-33
2023/02/21 04:45:58;;;;;;;3.78;1.88;;;;;;;;;;5111604;28;20020;-31
2023/02/21 04:48:24;;;;;;;2.97;1.75;;;;;;;;;;5111551;28;20381;-33
2023/02/21 04:50:50;;;;;;;5.05;1.95;;;;;;;;;;5111445;28;20028;-34
2023/02/21 04:53:16;;;;;;;3.13;1.83;;;;;;;;;;5111723;28;20378;-35
2023/02/21 04:55:42;;;;;;;4.68;1.85;;;;;;;;;;5111422;28;20048;-36
2023/02/21 04:58:08;;;;;;;3.75;1.92;;;;;;;;;;5111462;28;20396;-32
2023/02/21 05:00:34;;;;;;;3.40;2.20;;;;;;;;;;5111183;28;20039;-35
2023/02/21 05:03:00;;;;;;;4.47;2.00;;;;;;;;;;5113885;28;20520;-36
2023/02/21 05:05:26;;;;;;;3.08;1.63;;;;;;;;;;5113771;28;20062;-36
2023/02/21 05:07:52;;;;;;;3.40;2.00;;;;;;;;;;5115065;27;20609;-34
2023/02/21 05:10:18;;;;;;;5.90;1.83;;;;;;;;;;5115134;28;20061;-38
2023/02/21 05:12:44;;;;;;;3.30;1.98;;;;;;;;;;5115128;28;20028;-34
2023/02/21 05:15:12;;;;;;;5.22;2.20;;;;;;;;;;5113940;28;20059;-32
2023/02/21 05:17:38;;;;;;;3.50;2.10;;;;;;;;;;5114778;28;20024;-33
2023/02/21 05:20:06;;;;;;;4.03;1.85;;;;;;;;;;5114888;27;20028;-32
2023/02/21 05:22:33;;;;;;;3.85;2.05;;;;;;;;;;5115285;28;20026;-34
2023/02/21 05:24:59;;;;;;;3.63;2.05;;;;;;;;;;5115061;27;20032;-34
2023/02/21 05:27:25;;;;;;;4.40;1.60;;;;;;;;;;5114682;28;20031;-32
2023/02/21 05:29:52;;;;;;;3.78;2.17;;;;;;;;;;5115007;28;20366;-32
2023/02/21 05:32:20;;;;;;;5.18;2.20;;;;;;;;;;5113394;28;20384;-33
2023/02/21 05:34:46;;;;;;;4.00;1.85;;;;;;;;;;5114814;28;20030;-34
2023/02/21 05:37:19;;;;;;;2.78;1.67;;;;;;;;;;5114596;28;20054;-32
2023/02/21 05:39:46;;;;;;;3.25;1.70;;;;;;;;;;5114700;28;20028;-36
2023/02/21 05:42:12;;;;;;;3.67;1.80;;;;;;;;;;5114491;28;20039;-35
2023/02/21 05:44:38;;;;;;;3.53;1.55;;;;;;;;;;5114585;28;20027;-37
2023/02/21 05:47:06;;;;;;;2.70;1.77;;;;;;;;;;5114486;28;20020;-31
2023/02/21 05:49:32;;;;;;;3.17;2.28;;;;;;;;;;5114619;28;20381;-31
2023/02/21 05:51:58;;;;;;;2.88;1.85;;;;;;;;;;5114225;27;20027;-36
2023/02/21 05:54:24;;;;;;;5.30;1.85;;;;;;;;;;5114381;28;20024;-36
2023/02/21 05:56:51;;;;;;;5.25;2.10;;;;;;;;;;5114389;28;20032;-36
2023/02/21 05:59:18;;;;;;;2.40;1.65;;;;;;;;;;5114198;28;20501;-32
2023/02/21 06:01:46;;;;;;;2.58;1.70;;;;;;;;;;5114109;28;20079;-32
2023/02/21 06:04:12;;;;;;;3.67;2.17;;;;;;;;;;5114210;28;20039;-31
2023/02/21 06:06:38;;;;;;;3.95;2.38;;;;;;;;;;5114304;28;20023;-32
2023/02/21 06:09:05;;;;;;;2.97;1.70;;;;;;;;;;5114021;28;20095;-31
2023/02/21 06:11:32;;;;;;;5.30;1.85;;;;;;;;;;5114078;28;20027;-37
2023/02/21 06:13:59;;;;;;;4.53;2.05;;;;;;;;;;5113315;28;20482;-32
2023/02/21 06:16:27;;;;;;;3.15;1.90;;;;;;;;;;5113910;27;20031;-32
2023/02/21 06:18:54;;;;;;;3.78;1.95;;;;;;;;;;5114131;28;20043;-34
2023/02/21 06:21:20;;;;;;;3.50;2.17;;;;;;;;;;5113967;28;20451;-32
2023/02/21 06:23:46;;;;;;;4.28;2.15;;;;;;;;;;5113521;28;20110;-33
2023/02/21 06:26:12;;;;;;;5.47;2.20;;;;;;;;;;5113368;28;20106;-33
2023/02/21 06:28:38;;;;;;;3.88;2.00;;;;;;;;;;5113672;28;20039;-34
2023/02/21 06:31:05;;;;;;;6.85;2.00;;;;;;;;;;5112511;28;20027;-33
2023/02/21 06:33:31;;;;;;;3.30;1.90;;;;;;;;;;5113935;28;20054;-36
2023/02/21 06:35:57;;;;;;;3.55;2.00;;;;;;;;;;5113518;28;20028;-31
2023/02/21 06:38:23;;;;;;;4.25;2.38;;;;;;;;;;5113458;28;20023;-33
2023/02/21 06:40:49;;;;;;;6.40;2.33;;;;;;;;;;5113432;28;20507;-33
2023/02/21 06:43:15;;;;;;;4.93;2.20;;;;;;;;;;5113284;28;20048;-34
2023/02/21 06:45:41;;;;;;;3.17;2.00;;;;;;;;;;5113044;28;20027;-34
2023/02/21 06:48:07;;;;;;;3.58;2.15;;;;;;;;;;5113169;28;20020;-36
2023/02/21 06:50:33;;;;;;;4.15;1.90;;;;;;;;;;5113107;28;20020;-33
2023/02/21 06:53:00;;;;;;;4.18;2.05;;;;;;;;;;5113201;28;20197;-33
2023/02/21 06:55:25;;;;;;;5.05;1.88;;;;;;;;;;5112753;28;20015;-33
2023/02/21 06:57:51;;;;;;;4.65;2.28;;;;;;;;;;5112794;28;20453;-33
2023/02/21 07:00:18;;;;;;;3.97;1.98;;;;;;;;;;5112831;28;20024;-35
2023/02/21 07:02:44;;;;;;;5.07;2.33;;;;;;;;;;5111613;28;20110;-36
2023/02/21 07:05:10;;;;;;;4.45;2.00;;;;;;;;;;5113051;28;20111;-33
2023/02/21 07:07:36;;;;;;;3.45;2.20;;;;;;;;;;5112906;28;20077;-32
2023/02/21 07:10:02;;;;;;;4.60;2.28;;;;;;;;;;5112807;28;20032;-32
2023/02/21 07:12:28;;;;;;;3.15;1.80;;;;;;;;;;5112425;28;20469;-35
2023/02/21 07:14:54;;;;;;;5.72;2.20;;;;;;;;;;5112867;28;20028;-32
2023/02/21 07:17:20;;;;;;;2.38;1.80;;;;;;;;;;5112631;28;20023;-33
2023/02/21 07:19:46;;;;;;;4.75;2.22;;;;;;;;;;5112689;28;20034;-33
2023/02/21 07:22:12;;;;;;;3.60;1.90;;;;;;;;;;5112634;28;20028;-32
2023/02/21 07:24:40;;;;;;;3.70;1.88;;;;;;;;;;5111615;28;20020;-34
2023/02/21 07:27:06;;;;;;;2.40;1.77;;;;;;;;;;5112180;28;20019;-31
2023/02/21 07:29:32;;;;;;;2.88;1.70;;;;;;;;;;5112469;28;20095;-34
2023/02/21 07:31:58;;;;;;;2.70;1.75;;;;;;;;;;5112345;28;20461;-34
2023/02/21 07:34:24;;;;;;;4.35;2.25;;;;;;;;;;5112389;28;20030;-37
2023/02/21 07:36:50;;;;;;;4.75;1.83;;;;;;;;;;5112124;28;20031;-36
2023/02/21 07:39:16;;;;;;;5.18;2.00;;;;;;;;;;5112194;28;20355;-36
2023/02/21 07:41:42;;;;;;;4.13;1.90;;;;;;;;;;5111884;28;20038;-34
2023/02/21 07:44:08;;;;;;;3.72;2.10;;;;;;;;;;5112174;28;20055;-37
2023/02/21 07:46:35;;;;;;;2.95;1.95;;;;;;;;;;5110578;28;20031;-34
2023/02/21 07:49:01;;;;;;;3.88;2.20;;;;;;;;;;5112036;28;20041;-35
2023/02/21 07:51:28;;;;;;;5.10;2.03;;;;;;;;;;5112159;28;20068;-33
2023/02/21 07:53:54;;;;;;;3.53;2.13;;;;;;;;;;5110253;28;20031;-31
2023/02/21 07:56:20;;;;;;;2.50;1.65;;;;;;;;;;5110378;28;20118;-33
2023/02/21 07:58:46;;;;;;;4.05;1.80;;;;;;;;;;5111823;28;20028;-32
2023/02/21 08:01:12;;;;;;;3.28;1.77;;;;;;;;;;5111935;28;20133;-31
2023/02/21 08:03:39;;;;;;;3.58;1.90;;;;;;;;;;5111977;28;20020;-32
2023/02/21 08:06:05;;;;;;;3.75;1.85;;;;;;;;;;5111607;28;20023;-34
2023/02/21 08:08:31;;;;;;;3.45;1.77;;;;;;;;;;5111772;28;20062;-32
2023/02/21 08:10:58;;;;;;;3.47;1.67;;;;;;;;;;5111614;28;20089;-35
2023/02/21 08:13:23;;;;;;;2.47;1.65;;;;;;;;;;5110413;28;20072;-36
2023/02/21 08:15:49;;;;;;;2.58;1.48;;;;;;;;;;5111565;28;20098;-35
2023/02/21 08:18:19;;;;;;;2.95;1.70;;;;;;;;;;5111684;28;20412;-35
2023/02/21 08:20:45;;;;;;;2.17;1.40;;;;;;;;;;5111575;28;20024;-31
2023/02/21 08:23:11;;;;;;;3.50;1.90;;;;;;;;;;5111665;28;20099;-33
2023/02/21 08:25:37;;;;;;;2.78;1.73;;;;;;;;;;5111787;28;20103;-32
2023/02/21 08:28:03;;;;;;;2.47;1.65;;;;;;;;;;5111510;28;20473;-32
2023/02/21 08:30:29;;;;;;;2.28;1.48;;;;;;;;;;5111555;28;20038;-31
2023/02/21 08:32:55;;;;;;;3.00;1.77;;;;;;;;;;5111570;28;20019;-31
2023/02/21 08:35:21;;;;;;;3.13;1.67;;;;;;;;;;5111447;28;20469;-33
2023/02/21 08:37:48;;;;;;;2.28;1.45;;;;;;;;;;5115437;28;20028;-32
2023/02/21 08:40:14;;;;;;;2.17;1.60;;;;;;;;;;5115846;28;20024;-33
2023/02/21 08:42:41;;;;;;;3.50;1.90;;;;;;;;;;5115879;28;20055;-34
2023/02/21 08:45:09;;;;;;;2.30;1.60;;;;;;;;;;5115911;28;20031;-33
2023/02/21 08:47:35;;;;;;;2.33;1.60;;;;;;;;;;5113916;28;20439;-31
2023/02/21 08:50:02;;;;;;;2.05;1.45;;;;;;;;;;5115358;28;20123;-33
2023/02/21 08:52:28;;;;;;;3.00;1.70;;;;;;;;;;5115264;28;20028;-31
2023/02/21 08:54:54;;;;;;;3.08;1.75;;;;;;;;;;5115341;28;20496;-34
2023/02/21 08:57:20;;;;;;;3.08;1.55;;;;;;;;;;5115174;28;20020;-34
2023/02/21 08:59:46;;;;;;;2.00;1.42;;;;;;;;;;5115209;28;20539;-42
2023/02/21 09:02:16;;;;;;;3.97;1.58;;;;;;;;;;5113765;28;20065;-42
2023/02/21 09:04:42;;;;;;;2.90;1.70;;;;;;;;;;5114948;28;20099;-41
2023/02/21 09:07:08;;;;;;;1.92;1.40;;;;;;;;;;5115282;28;20027;-42
2023/02/21 09:09:36;;;;;;;2.78;1.88;;;;;;;;;;5115004;28;20031;-42
2023/02/21 09:12:07;;;;;;;2.58;1.65;;;;;;;;;;5114888;28;20132;-42
2023/02/21 09:14:33;;;;;;;2.92;1.42;;;;;;;;;;5114949;28;20011;-42
2023/02/21 09:16:59;;;;;;;2.47;1.50;;;;;;;;;;5114711;28;20020;-42
2023/02/21 09:19:25;;;;;;;2.88;1.45;;;;;;;;;;5115199;28;20053;-42
2023/02/21 09:21:54;;;;;;;2.33;1.40;;;;;;;;;;5114834;28;20076;-41
2023/02/21 09:24:24;;;;;;;3.13;1.63;;;;;;;;;;5114762;28;20485;-41
2023/02/21 09:26:53;;;;;;;3.90;1.80;;;;;;;;;;5114530;28;20080;-42
2023/02/21 09:29:19;;;;;;;2.22;1.45;;;;;;;;;;5114725;28;20020;-41
2023/02/21 09:31:45;;;;;;;3.05;1.90;;;;;;;;;;5114482;28;20028;-42
2023/02/21 09:34:11;;;;;;;1.98;1.33;;;;;;;;;;5114739;28;20375;-43
2023/02/21 09:36:37;;;;;;;5.40;1.83;;;;;;;;;;5114544;28;20106;-40
2023/02/21 09:39:05;;;;;;;5.70;1.80;;;;;;;;;;5114537;28;20061;-39
2023/02/21 09:41:32;;;;;;;4.78;1.80;;;;;;;;;;5114424;28;20366;-32
2023/02/21 09:43:59;;;;;;;2.17;1.60;;;;;;;;;;5114502;27;20038;-31
2023/02/21 09:46:28;;;;;;;2.33;1.50;;;;;;;;;;5112777;28;20055;-34
2023/02/21 09:48:54;;;;;;;3.15;1.70;;;;;;;;;;5113677;28;20024;-32
2023/02/21 09:51:20;;;;;;;2.00;1.50;;;;;;;;;;5114147;28;20474;-32
2023/02/21 09:53:47;;;;;;;2.38;1.63;;;;;;;;;;5114264;28;20480;-32
2023/02/21 09:56:19;;;;;;;2.30;1.55;;;;;;;;;;5114085;28;20110;-34
2023/02/21 09:58:46;;;;;;;2.65;1.73;;;;;;;;;;5114476;28;20039;-35
2023/02/21 10:01:35;;;;;;;3.63;1.73;;;;;;;;;;5114067;28;20106;-33
2023/02/21 10:04:13;;;;;;;3.20;1.50;;;;;;;;;;5094140;28;20040;-32
2023/02/21 10:06:44;;;;;;;4.35;1.70;;;;;;;;;;5113845;28;20283;-32
2023/02/21 10:09:17;;;;;;;2.88;1.60;;;;;;;;;;5113890;28;20039;-33
2023/02/21 10:11:42;;;;;;;2.92;1.70;;;;;;;;;;5114083;28;20111;-33
2023/02/21 10:14:12;;;;;;;3.10;1.60;;;;;;;;;;5113989;28;20133;-35
2023/02/21 10:16:44;;;;;;;3.42;1.60;;;;;;;;;;5113700;28;20023;-34
2023/02/21 10:19:10;;;;;;;2.50;1.40;;;;;;;;;;5113833;28;20012;-33
2023/02/21 10:21:38;;;;;;;2.70;1.70;;;;;;;;;;5113578;28;20054;-31
2023/02/21 10:24:10;;;;;;;3.40;1.63;;;;;;;;;;5113943;27;20465;-32
2023/02/21 10:26:41;;;;;;;3.72;1.33;;;;;;;;;;5113537;28;20077;-35
2023/02/21 10:29:19;;;;;;;2.88;1.45;;;;;;;;;;5113714;28;20481;-31
2023/02/21 10:31:46;;;;;;;3.20;1.45;;;;;;;;;;5113525;28;20134;-32
2023/02/21 10:34:19;;;;;;;3.03;1.67;;;;;;;;;;5113414;28;20017;-33
2023/02/21 10:36:45;;;;;;;4.07;1.52;;;;;;;;;;5113450;28;20385;-33
2023/02/21 10:39:18;;;;;;;2.70;1.40;;;;;;;;;;5113373;28;20024;-34
2023/02/21 10:41:45;;;;;;;2.83;1.48;;;;;;;;;;5113300;28;20389;-33
2023/02/21 10:44:17;;;;;;;2.67;1.25;;;;;;;;;;5113277;28;20019;-35
2023/02/21 10:46:44;;;;;;;2.45;1.40;;;;;;;;;;5112841;28;20104;-36
2023/02/21 10:49:13;;;;;;;4.38;1.35;;;;;;;;;;5113191;28;20039;-34
2023/02/21 10:51:39;;;;;;;3.05;1.52;;;;;;;;;;5112908;28;20031;-35
2023/02/21 10:54:23;;;;;;;3.28;1.30;;;;;;;;;;5113025;28;20428;-34
2023/02/21 10:56:51;;;;;;;1.77;1.20;;;;;;;;;;5112717;28;20023;-38
2023/02/21 10:59:22;;;;;;;2.55;1.10;;;;;;;;;;5112659;28;20023;-35
2023/02/21 11:01:49;;;;;;;2.10;1.13;;;;;;;;;;5112728;28;20393;-35
2023/02/21 11:04:21;;;;;;;1.85;1.00;;;;;;;;;;5111510;28;20024;-33
2023/02/21 11:06:55;;;;;;;2.10;1.23;;;;;;;;;;5112476;28;20031;-31
2023/02/21 11:09:27;;;;;;;2.03;1.20;;;;;;;;;;5112824;28;20039;-35
2023/02/21 11:12:04;;;;;;;1.90;1.00;;;;;;;;;;5112483;28;20035;-36
2023/02/21 11:14:32;;;;;;;1.55;0.93;;;;;;;;;;5112835;28;20482;-33
2023/02/21 11:17:18;;;;;;;1.60;1.00;;;;;;;;;;5112712;28;20506;-33
2023/02/21 11:19:52;;;;;;;1.65;1.05;;;;;;;;;;5112560;28;20012;-31
2023/02/21 11:22:20;;;;;;;1.60;0.95;;;;;;;;;;5112378;28;20038;-33
2023/02/21 11:24:46;;;;;;;1.25;0.80;;;;;;;;;;5112543;28;20550;-32
2023/02/21 11:27:13;;;;;;;2.08;1.00;;;;;;;;;;5112505;28;20031;-32
2023/02/21 11:29:41;;;;;;;1.73;0.82;;;;;;;;;;5112487;28;20034;-33
2023/02/21 11:32:12;;;;;;;1.88;1.20;;;;;;;;;;5112216;28;20488;-33
2023/02/21 11:34:43;;;;;;;1.92;0.90;;;;;;;;;;5112201;28;20439;-32
2023/02/21 11:37:10;;;;;;;2.78;1.05;;;;;;;;;;5111992;28;20034;-31
2023/02/21 11:39:36;;;;;;;2.33;1.00;;;;;;;;;;5112262;28;20020;-33
2023/02/21 11:42:05;;;;;;;1.08;0.80;;;;;;;;;;5112058;28;20024;-34
2023/02/21 11:44:34;;;;;;;2.53;0.80;;;;;;;;;;5112090;28;20032;-36
2023/02/21 11:47:18;;;;;;;1.10;0.70;;;;;;;;;;5111780;28;20401;-34
2023/02/21 11:49:44;;;;;;;1.58;0.85;;;;;;;;;;5112158;28;20430;-35
2023/02/21 11:52:15;;;;;;;3.13;0.82;;;;;;;;;;5111858;28;20104;-31
2023/02/21 11:54:41;;;;;;;3.25;0.75;;;;;;;;;;5112284;28;20061;-34
2023/02/21 11:57:25;;;;;;;2.22;0.70;;;;;;;;;;5111757;28;20137;-31
2023/02/21 12:00:08;;;;;;;1.00;0.90;;;;;;;;;;5111757;28;20027;-31
2023/02/21 12:02:43;;;;;;;0.88;0.60;;;;;;;;;;5111963;28;20020;-37
2023/02/21 12:05:16;;;;;;;1.30;0.70;;;;;;;;;;5111973;28;20051;-32
2023/02/21 12:07:45;;;;;;;1.05;0.70;;;;;;;;;;5111684;28;20035;-36
2023/02/21 12:10:29;;;;;;;1.00;0.60;;;;;;;;;;5111484;28;20426;-33
2023/02/21 12:13:02;;;;;;;2.95;0.85;;;;;;;;;;5111765;28;20028;-34
2023/02/21 12:15:45;;;;;;;1.35;0.70;;;;;;;;;;5111828;28;20118;-35
2023/02/21 12:18:14;;;;;;;1.35;0.50;;;;;;;;;;5111660;28;20031;-32
2023/02/21 12:21:01;;;;;;;2.15;0.70;;;;;;;;;;5111616;28;20532;-35
2023/02/21 12:23:30;;;;;;;1.05;0.68;;;;;;;;;;5111425;28;20032;-34
2023/02/21 12:26:05;;;;;;;1.42;0.70;;;;;;;;;;5111664;28;20032;-32
2023/02/21 12:28:50;;;;;;;1.38;0.70;;;;;;;;;;5111702;28;20112;-31
2023/02/21 12:31:16;;;;;;;0.60;0.50;;;;;;;;;;5111823;28;20413;-32
2023/02/21 12:33:51;;;;;;;1.73;0.60;;;;;;;;;;5111798;28;20028;-33
2023/02/21 12:36:19;;;;;;;0.80;0.50;;;;;;;;;;5111326;28;20028;-34
2023/02/21 12:38:45;;;;;;;0.68;0.50;;;;;;;;;;5111627;28;20011;-31
2023/02/21 12:41:14;;;;;;;1.05;0.50;;;;;;;;;;5111414;28;20028;-33
2023/02/21 12:43:52;;;;;;;1.33;0.60;;;;;;;;;;5111491;28;20019;-32
2023/02/21 12:46:30;;;;;;;1.45;0.50;;;;;;;;;;5111278;28;20035;-33
2023/02/21 12:49:08;;;;;;;1.30;0.70;;;;;;;;;;5111526;28;20024;-31
2023/02/21 12:51:39;;;;;;;1.50;0.60;;;;;;;;;;5111221;28;20031;-31
2023/02/21 12:54:07;;;;;;;0.60;0.40;;;;;;;;;;5111758;28;20024;-34
2023/02/21 12:56:43;;;;;;;1.98;0.60;;;;;;;;;;5111146;28;20019;-32
2023/02/21 12:59:28;;;;;;;1.58;0.70;;;;;;;;;;5111263;28;20028;-32
2023/02/21 13:02:03;;;;;;;0.65;0.43;;;;;;;;;;5111204;28;20051;-34
2023/02/21 13:04:29;;;;;;;1.25;0.50;;;;;;;;;;5111245;28;20027;-33
2023/02/21 13:06:55;;;;;;;1.45;0.55;;;;;;;;;;5111075;28;20538;-31
2023/02/21 13:09:44;;;;;;;0.70;0.47;;;;;;;;;;5111314;28;20032;-31
2023/02/21 13:12:10;;;;;;;0.75;0.47;;;;;;;;;;5105404;28;20047;-32
2023/02/21 13:14:40;;;;;;;1.17;0.50;;;;;;;;;;5111167;28;20638;-33
2023/02/21 13:17:09;;;;;;;0.57;0.40;;;;;;;;;;5110983;28;20469;-32
2023/02/21 13:19:43;;;;;;;0.65;0.40;;;;;;;;;;5111140;28;20484;-34
2023/02/21 13:25:25;;;;;;;0.60;0.40;;;;;;;;;;5114924;28;20018;-30
2023/02/21 13:27:56;;;;;;;1.05;0.40;;;;;;;;;;5114834;28;20135;-34
2023/02/21 13:30:32;;;;;;;2.72;0.50;;;;;;;;;;5114685;28;20030;-31
2023/02/21 13:32:59;;;;;;;1.05;0.52;;;;;;;;;;5114581;28;20102;-36
2023/02/21 13:35:48;;;;;;;1.33;0.60;;;;;;;;;;5114536;28;20517;-39
2023/02/21 13:38:18;;;;;;;0.60;0.40;;;;;;;;;;5114745;28;20348;-39
2023/02/21 13:41:04;;;;;;;1.00;0.40;;;;;;;;;;5114468;28;20046;-40
2023/02/21 13:43:32;;;;;;;0.82;0.50;;;;;;;;;;5114459;27;20367;-38
2023/02/21 13:46:17;;;;;;;0.40;0.32;;;;;;;;;;5114180;28;20084;-37
2023/02/21 13:48:43;;;;;;;0.28;0.22;;;;;;;;;;5114480;28;20031;-42
2023/02/21 13:51:28;;;;;;;0.65;0.50;;;;;;;;;;5114184;28;20382;-38
2023/02/21 13:54:24;;;;;;;0.50;0.50;;;;;;;;;;5114220;28;20045;-39
2023/02/21 13:56:51;;;;;;;4.05;0.82;;;;;;;;;;5104775;28;20032;-39
2023/02/21 13:59:23;;;;;;;0.98;0.50;;;;;;;;;;5114048;28;20039;-40
2023/02/21 14:01:50;;;;;;;0.77;0.38;;;;;;;;;;5114052;28;20102;-40
2023/02/21 14:04:44;;;;;;;0.65;0.47;;;;;;;;;;5114071;28;20034;-39
2023/02/21 14:07:10;;;;;;;0.70;0.38;;;;;;;;;;5113820;28;20045;-42
2023/02/21 14:09:39;;;;;;;0.38;0.35;;;;;;;;;;5114084;28;20364;-40
2023/02/21 14:12:06;;;;;;;0.60;0.30;;;;;;;;;;5113766;28;20473;-42
2023/02/21 14:14:36;;;;;;;0.95;0.43;;;;;;;;;;5113883;28;20054;-41
2023/02/21 14:17:04;;;;;;;0.63;0.50;;;;;;;;;;5113564;28;20024;-36
2023/02/21 14:19:40;;;;;;;1.48;0.55;;;;;;;;;;5113842;28;20430;-38
2023/02/21 14:22:16;;;;;;;1.70;0.60;;;;;;;;;;5113664;28;20385;-39
2023/02/21 14:24:44;;;;;;;1.17;0.30;;;;;;;;;;5113665;28;20027;-39
2023/02/21 14:27:11;;;;;;;0.57;0.40;;;;;;;;;;5113510;28;20062;-41
2023/02/21 14:29:56;;;;;;;3.50;0.50;;;;;;;;;;5113498;28;20101;-39
2023/02/21 14:32:42;;;;;;;1.02;0.60;;;;;;;;;;5113301;28;20481;-37
2023/02/21 14:35:17;;;;;;;1.23;0.50;;;;;;;;;;5112995;28;20409;-37
2023/02/21 14:37:55;;;;;;;2.00;0.30;;;;;;;;;;5113174;28;20053;-39
2023/02/21 14:40:41;;;;;;;1.92;0.50;;;;;;;;;;5113297;28;20076;-42
2023/02/21 14:43:18;;;;;;;3.47;0.45;;;;;;;;;;5113275;28;20081;-36
2023/02/21 14:45:54;;;;;;;0.52;0.40;;;;;;;;;;5113164;28;20427;-39
2023/02/21 14:48:30;;;;;;;0.80;0.57;;;;;;;;;;5113031;28;20412;-40
2023/02/21 14:51:08;;;;;;;1.30;0.50;;;;;;;;;;5113273;28;20023;-37
2023/02/21 14:53:50;;;;;;;0.73;0.50;;;;;;;;;;5113093;28;20549;-35
2023/02/21 14:56:25;;;;;;;1.35;0.50;;;;;;;;;;5112853;28;20028;-41
2023/02/21 14:58:54;;;;;;;0.30;0.30;;;;;;;;;;5112816;28;20035;-40
2023/02/21 15:01:32;;;;;;;0.90;0.50;;;;;;;;;;5112927;28;20490;-40
2023/02/21 15:04:08;;;;;;;1.67;0.50;;;;;;;;;;5112998;28;20031;-41
2023/02/21 15:06:34;;;;;;;0.98;0.60;;;;;;;;;;5112735;28;20114;-40
2023/02/21 15:09:10;;;;;;;0.98;0.40;;;;;;;;;;5112791;28;20031;-39
2023/02/21 15:11:38;;;;;;;2.17;0.40;;;;;;;;;;5112688;28;20416;-40
2023/02/21 15:14:23;;;;;;;0.52;0.30;;;;;;;;;;5112741;28;20034;-41
2023/02/21 15:16:51;;;;;;;1.35;0.40;;;;;;;;;;5112412;28;20363;-39
2023/02/21 15:19:36;;;;;;;0.70;0.35;;;;;;;;;;5112570;28;20366;-37
2023/02/21 15:22:20;;;;;;;2.15;0.47;;;;;;;;;;5112649;28;20026;-37
2023/02/21 15:25:19;;;;;;;0.57;0.40;;;;;;;;;;5112561;28;20023;-40
2023/02/21 15:27:48;;;;;;;0.60;0.50;;;;;;;;;;5089122;28;20385;-40
2023/02/21 15:30:21;;;;;;;0.70;0.40;;;;;;;;;;5112367;28;20026;-39
2023/02/21 15:32:53;;;;;;;1.70;0.70;;;;;;;;;;5112517;28;20032;-41
2023/02/21 15:35:22;;;;;;;0.32;0.30;;;;;;;;;;5112407;28;20024;-42
2023/02/21 15:37:48;;;;;;;1.58;0.60;;;;;;;;;;5112168;28;20027;-37
2023/02/21 15:40:16;;;;;;;2.50;0.40;;;;;;;;;;5112292;28;20106;-38
2023/02/21 15:42:44;;;;;;;0.93;0.40;;;;;;;;;;5112205;28;20039;-38
2023/02/21 15:45:18;;;;;;;0.45;0.30;;;;;;;;;;5111775;28;20034;-39
2023/02/21 15:47:45;;;;;;;0.68;0.32;;;;;;;;;;5111805;28;20419;-38
2023/02/21 15:50:30;;;;;;;0.38;0.28;;;;;;;;;;5112172;28;20038;-42
2023/02/21 15:52:56;;;;;;;0.88;0.30;;;;;;;;;;5111959;28;20030;-40
2023/02/21 15:55:22;;;;;;;0.38;0.35;;;;;;;;;;5112077;28;20380;-40
2023/02/21 15:58:06;;;;;;;0.57;0.40;;;;;;;;;;5112031;28;20020;-40
2023/02/21 16:00:39;;;;;;;2.30;0.38;;;;;;;;;;5111917;28;20408;-40
2023/02/21 16:03:24;;;;;;;0.47;0.35;;;;;;;;;;5112047;28;20041;-36
2023/02/21 16:05:50;;;;;;;0.90;0.43;;;;;;;;;;5112006;28;20055;-41
2023/02/21 16:08:16;;;;;;;1.00;0.63;;;;;;;;;;5112134;28;20027;-39
2023/02/21 16:10:43;;;;;;;0.68;0.40;;;;;;;;;;5111815;28;20024;-40
2023/02/21 16:13:09;;;;;;;0.70;0.40;;;;;;;;;;5111900;28;20059;-40
2023/02/21 16:15:36;;;;;;;2.47;0.30;;;;;;;;;;5111871;28;20062;-40
2023/02/21 16:18:04;;;;;;;0.90;0.40;;;;;;;;;;5111497;28;20370;-40
2023/02/21 16:20:32;;;;;;;1.10;0.35;;;;;;;;;;5111925;28;20032;-39
2023/02/21 16:23:17;;;;;;;0.40;0.32;;;;;;;;;;5111853;28;20042;-41
2023/02/21 16:25:56;;;;;;;0.20;0.20;;;;;;;;;;5111550;28;20059;-42
2023/02/21 16:28:22;;;;;;;0.70;0.40;;;;;;;;;;5111604;28;20020;-38
2023/02/21 16:30:48;;;;;;;0.75;0.40;;;;;;;;;;5111465;28;20019;-39
2023/02/21 16:33:14;;;;;;;0.60;0.40;;;;;;;;;;5111475;28;20119;-40
2023/02/21 16:35:41;;;;;;;0.47;0.30;;;;;;;;;;5111466;28;20076;-35
2023/02/21 16:38:10;;;;;;;2.85;0.35;;;;;;;;;;5111391;28;20027;-42
2023/02/21 16:40:36;;;;;;;0.68;0.40;;;;;;;;;;5111441;28;20077;-38
2023/02/21 16:43:03;;;;;;;1.23;0.32;;;;;;;;;;5111420;28;20023;-41
2023/02/21 16:45:30;;;;;;;0.50;0.40;;;;;;;;;;5111599;28;20098;-40
2023/02/21 16:47:57;;;;;;;0.77;0.47;;;;;;;;;;5109931;28;20024;-39
2023/02/21 16:50:36;;;;;;;1.55;0.50;;;;;;;;;;5111393;28;20023;-38
2023/02/21 16:53:02;;;;;;;0.57;0.50;;;;;;;;;;5111366;28;20122;-41
2023/02/21 16:55:29;;;;;;;0.55;0.40;;;;;;;;;;5111127;28;20034;-40
2023/02/21 16:57:56;;;;;;;1.42;0.50;;;;;;;;;;5113314;28;20091;-41
2023/02/21 17:00:22;;;;;;;0.88;0.47;;;;;;;;;;5115136;27;20035;-40
2023/02/21 17:02:49;;;;;;;0.57;0.40;;;;;;;;;;5114155;27;20023;-41
2023/02/21 17:05:16;;;;;;;0.40;0.30;;;;;;;;;;5115184;27;20466;-41
2023/02/21 17:07:42;;;;;;;0.80;0.38;;;;;;;;;;5113554;28;20039;-39
2023/02/21 17:10:08;;;;;;;1.02;0.30;;;;;;;;;;5115145;28;20055;-39
2023/02/21 17:12:34;;;;;;;0.60;0.40;;;;;;;;;;5114819;28;20474;-41
2023/02/21 17:15:00;;;;;;;0.70;0.40;;;;;;;;;;5115037;28;20035;-40